Terminal Aerodrome Forecast
Issued by NWS

Current Version | Previous Version | Text Only | Print | Product List | Glossary Off
Versions: 1 2 3 4 5 6 7 8 9 10 11 12 13 14 15 16 17 18 19 20 21 22 23 24 25 26 27 28 29

000
FTUS41 KILN 261720
TAFLUK
TAF
KLUK 261720Z 2618/2718 21010KT P6SM VCTS BKN045CB
      TEMPO 2619/2621 4SM TSRA BR OVC028CB
     FM262100 21008KT P6SM SCT045 SCT100 BKN250
     FM270100 18004KT P6SM SCT045 BKN250
     FM270600 00000KT 4SM BR SCT045 BKN250
     FM271300 19004KT P6SM SCT045 BKN250
     FM271600 19010KT P6SM BKN045=

USA.gov is the U.S. government's official web portal to all federal, state and local government web resources and services.